Hector International Airport
KFAR : now visible

Airfield :











YOU CAN JOIN US ON...

 
LOGIN :

Register | Disclaimer

   EN    FR    IT 

 









Legend :    VFR   Marginal VFR   IFR   Intensive IFR   Very Intensive IFR
Visi :
Ceiling :
>= 8 km
>= 3000ft
5 to 8 km
1000 to 3000 ft
1500m to 5 km
500 to 1000 ft
800 to 1500m
200 to 500 ft
< 800m
< 200 ft
Symbols :   Thunderstorms  Fog  Heavy snow  Heavy precipitations  Wind > 20 kt






- Airport Elevation : 902 ft
- IATA code : FAR


KFAR - Hector International

CURRENT METAR :
  • 181353Z 26015G24KT 10SM OVC031 03/M03 A2999 RMK AO2 SLP164 T00331033

EXPIRED METARs :
  • 181253Z 28009KT 10SM OVC038 03/M03 A2999 RMK AO2 SLP162 T00281028
  • 181153Z 25010KT 10SM CLR 02/M03 A2997 RMK AO2 SLP157 70001 T00171033 10056 20017 53007
  • 181053Z 26014KT 10SM CLR 02/M03 A2996 RMK AO2 SLP151 T00221033
  • 180953Z 24009KT 10SM CLR 03/M02 A2995 RMK AO2 SLP149 T00281022

TAF KFAR
Valid from the 18 at 12:00 until the 19 at 12:00 UTC


181120Z 1812/1912 26014KT P6SM SKC
FM181500 28020G28KT P6SM BKN035
FM181800 28020G30KT P6SM BKN040
FM190200 29018KT P6SM BKN110
KZMP FIR / North America



MET'MAP, your aeronautical weather chart ! - Copyright ORBIFLY December 2007 - Disclaimer

ORBIFLY MET'MAP TEAM :

Programming & Development : Alexandra Zaïnal
Original concept : Baudouin d'Aumeries
Technical & hardware support : Manuel Goepfert
Assistance : Marc-Olivier Méhu




SOURCES & CREDITS :

   NOAA       Earth
Advisory